createdAt,value
2022-10-01T10:34:23.276Z,92.43
2022-10-01T10:35:26.119Z,92.45
2022-10-01T10:36:31.000Z,92.08
2022-10-01T10:37:36.834Z,92.66
2022-10-01T10:38:38.305Z,92.61
2022-10-01T10:47:46.322Z,89.78
2022-10-01T10:48:58.568Z,90.09
2022-10-01T10:50:06.487Z,88.48
2022-10-01T10:51:08.084Z,88.39
2022-10-01T10:52:30.597Z,87.79
2022-10-01T10:53:45.936Z,86.85
2022-10-01T10:54:50.234Z,86.80
2022-10-01T10:56:02.424Z,87.31
2022-10-01T10:57:31.443Z,87.57
2022-10-01T10:58:37.939Z,88.00
2022-10-01T10:59:39.347Z,88.76
2022-10-01T11:00:52.427Z,88.37
2022-10-01T11:01:54.070Z,89.82
2022-10-01T11:30:41.100Z,92.38
2022-10-01T11:31:52.252Z,92.33
2022-10-01T12:07:35.983Z,89.56
2022-10-01T12:08:40.198Z,89.24
2022-10-01T12:09:56.925Z,89.16
2022-10-01T12:30:23.093Z,87.61
2022-10-01T12:31:30.123Z,87.63
2022-10-01T12:48:58.089Z,85.64
2022-10-01T12:50:07.441Z,85.29
2022-10-01T12:51:30.121Z,85.34
2022-10-01T13:01:31.075Z,82.57
2022-10-01T13:02:35.817Z,82.62
2022-10-01T13:04:11.030Z,82.25
2022-10-01T13:05:24.403Z,81.50
2022-10-01T13:06:25.798Z,81.31
2022-10-01T13:07:32.890Z,80.71
2022-10-01T13:08:38.080Z,79.47
2022-10-01T13:15:06.727Z,78.39
2022-10-01T13:16:18.920Z,76.63
2022-10-01T13:17:26.246Z,75.13
2022-10-01T13:18:43.029Z,75.26
2022-10-01T13:19:44.652Z,75.43
2022-10-01T13:21:14.718Z,75.07
2022-10-01T13:22:22.069Z,72.91
2022-10-01T13:23:47.873Z,71.78
2022-10-01T13:25:08.427Z,70.99
2022-10-01T13:26:32.321Z,71.31
2022-10-01T13:27:47.203Z,73.00
2022-10-01T13:29:01.629Z,73.57
2022-10-01T13:30:26.405Z,74.11
2022-10-01T13:31:37.126Z,74.15
2022-10-01T13:33:01.108Z,71.73
2022-10-01T13:39:04.713Z,73.74
2022-10-01T13:40:21.490Z,74.87
2022-10-01T13:41:27.223Z,75.03
2022-10-01T13:42:43.885Z,73.18
2022-10-01T13:43:58.177Z,74.91
2022-10-01T13:45:04.716Z,75.03
2022-10-01T13:46:09.155Z,74.93
2022-10-01T13:52:49.620Z,75.06
2022-10-01T13:54:00.628Z,74.71
2022-10-01T13:55:02.433Z,74.15
2022-10-01T13:56:05.414Z,74.68
2022-10-01T13:57:10.733Z,74.64
2022-10-01T13:58:34.041Z,74.48
2022-10-01T13:59:37.653Z,74.61
2022-10-01T14:00:48.525Z,74.51
2022-10-01T14:01:50.009Z,74.77
2022-10-01T14:03:21.306Z,74.36
2022-10-01T14:04:33.148Z,74.52
2022-10-01T14:14:42.913Z,74.66
2022-10-01T14:15:59.933Z,74.36
2022-10-01T14:17:01.692Z,74.31
2022-10-01T14:18:16.852Z,74.43
2022-10-01T14:28:09.888Z,73.76
2022-10-01T14:29:44.857Z,73.57
2022-10-01T14:31:19.810Z,73.55
2022-10-01T14:32:58.670Z,73.15
2022-10-01T14:39:07.619Z,71.76
2022-10-01T14:40:23.646Z,69.37
2022-10-01T14:41:26.072Z,69.01
2022-10-01T14:42:27.510Z,68.83
2022-10-01T14:43:31.366Z,69.63
2022-10-01T14:44:46.721Z,70.73
2022-10-01T14:46:05.986Z,71.54
2022-10-01T14:47:19.769Z,72.21
2022-10-01T15:02:35.563Z,74.63
2022-10-01T15:03:38.810Z,75.01
2022-10-01T15:04:46.115Z,74.51
2022-10-01T15:16:10.487Z,75.47
2022-10-01T15:17:21.169Z,75.59
2022-10-01T15:18:22.897Z,75.42
2022-10-01T15:41:42.678Z,75.69
2022-10-01T15:43:11.720Z,75.75
2022-10-01T15:57:07.370Z,70.92
2022-10-01T15:58:31.274Z,69.61
2022-10-01T15:59:33.972Z,68.89
2022-10-01T16:00:52.908Z,69.01
2022-10-01T16:01:54.531Z,70.17
2022-10-01T16:02:57.881Z,70.02
2022-10-01T16:04:09.179Z,69.95
